Time;durP1;ratioP1;P1;durP2;ratioP2;P2;SDS_P1;SDS_P2;PMS_P1;PMS_P2;Temp;Humidity;BMP_temperature;BMP_pressure;BME280_temperature;BME280_humidity;BME280_pressure;Samples;Min_cycle;Max_cycle;Signal;HPM_P1;HPM_P2
2021/08/18 00:00:15;;;;;;;20.92;8.38;;;;;;;12.94;100.00;96980.91;5053389;28;20577;-66
2021/08/18 00:02:40;;;;;;;21.17;8.55;;;;;;;13.05;100.00;96989.28;5061024;28;20051;-64
2021/08/18 00:05:09;;;;;;;20.92;9.27;;;;;;;13.08;100.00;96996.78;5056530;28;20043;-63
2021/08/18 00:07:34;;;;;;;22.70;8.85;;;;;;;13.09;100.00;96986.56;5055066;28;20072;-65
2021/08/18 00:10:00;;;;;;;20.92;9.38;;;;;;;13.03;100.00;96986.13;5036027;28;20099;-64
2021/08/18 00:12:25;;;;;;;21.38;8.68;;;;;;;13.24;100.00;96985.56;5032000;28;20049;-64
2021/08/18 00:14:51;;;;;;;19.40;8.55;;;;;;;13.38;100.00;96973.94;5041078;28;20041;-64
2021/08/18 00:17:18;;;;;;;18.83;8.45;;;;;;;13.20;100.00;96977.28;5033716;28;20486;-64
2021/08/18 00:19:43;;;;;;;22.88;8.80;;;;;;;13.20;100.00;96973.75;5039907;28;20038;-65
2021/08/18 00:22:09;;;;;;;23.40;9.40;;;;;;;13.23;100.00;96978.47;5029447;28;20091;-65
2021/08/18 00:24:34;;;;;;;21.23;8.93;;;;;;;13.02;100.00;96979.03;5037195;28;20044;-66
2021/08/18 00:26:59;;;;;;;25.65;9.23;;;;;;;12.87;100.00;96980.81;5041222;28;20044;-62
2021/08/18 00:29:25;;;;;;;21.88;9.20;;;;;;;12.74;100.00;96982.25;5034060;28;20045;-64
2021/08/18 00:31:50;;;;;;;23.00;9.60;;;;;;;12.66;100.00;96986.88;5040667;28;20037;-65
2021/08/18 00:34:16;;;;;;;27.95;9.93;;;;;;;12.65;100.00;96992.72;5033524;28;20037;-65
2021/08/18 00:36:41;;;;;;;23.48;9.52;;;;;;;12.65;100.00;96977.03;5038531;28;20043;-63
2021/08/18 00:39:06;;;;;;;23.85;10.07;;;;;;;12.71;100.00;96983.78;5028356;28;20379;-71
2021/08/18 00:41:33;;;;;;;25.67;9.27;;;;;;;12.72;100.00;96974.38;5041596;28;20049;-66
2021/08/18 00:43:58;;;;;;;21.02;8.70;;;;;;;12.71;100.00;96967.31;5042513;28;20060;-63
2021/08/18 00:46:24;;;;;;;25.55;8.68;;;;;;;12.85;100.00;96963.91;5036988;28;20061;-61
2021/08/18 00:48:49;;;;;;;19.10;8.15;;;;;;;12.80;100.00;96976.03;5040357;28;20152;-66
2021/08/18 00:51:15;;;;;;;19.77;8.13;;;;;;;12.80;100.00;96976.03;5035086;28;20056;-64
2021/08/18 00:53:41;;;;;;;23.20;9.18;;;;;;;12.77;100.00;96970.50;5039310;28;20037;-69
2021/08/18 00:56:09;;;;;;;23.75;8.82;;;;;;;12.80;100.00;96967.00;5024068;28;20040;-65
2021/08/18 00:58:35;;;;;;;26.45;9.50;;;;;;;12.75;100.00;96967.34;5035647;28;20040;-63
2021/08/18 01:01:00;;;;;;;36.70;16.30;;;;;;;12.69;100.00;96964.13;5039388;28;20952;-66
2021/08/18 01:03:28;;;;;;;23.38;9.77;;;;;;;12.63;100.00;96957.38;5030076;28;20053;-66
2021/08/18 01:05:54;;;;;;;22.35;9.13;;;;;;;12.68;100.00;96953.53;5039545;28;20033;-66
2021/08/18 01:08:19;;;;;;;23.13;8.65;;;;;;;12.73;100.00;96961.41;5031073;28;20083;-64
2021/08/18 01:10:45;;;;;;;22.20;8.90;;;;;;;12.77;100.00;96962.25;5031244;28;20065;-64
2021/08/18 01:13:10;;;;;;;28.38;10.68;;;;;;;12.76;100.00;96966.16;5021019;28;20072;-67
2021/08/18 01:15:36;;;;;;;23.63;9.70;;;;;;;12.78;100.00;96959.16;5030106;28;20124;-61
2021/08/18 01:18:04;;;;;;;18.95;8.02;;;;;;;12.83;100.00;96958.00;5038912;28;20653;-66
2021/08/18 01:20:31;;;;;;;22.48;9.15;;;;;;;12.95;100.00;96954.22;5039721;28;20041;-64
2021/08/18 01:22:59;;;;;;;18.08;8.60;;;;;;;13.17;100.00;96961.53;5034986;28;20490;-64
2021/08/18 01:25:25;;;;;;;26.58;8.85;;;;;;;13.25;100.00;96961.59;5026465;28;20914;-65
2021/08/18 01:27:54;;;;;;;19.10;8.65;;;;;;;13.19;100.00;96959.19;5034051;28;20048;-64
2021/08/18 01:30:22;;;;;;;21.10;8.85;;;;;;;13.17;100.00;96953.25;5043650;28;20048;-64
2021/08/18 01:32:50;;;;;;;20.08;8.50;;;;;;;13.12;100.00;96950.06;5033739;28;20045;-63
2021/08/18 01:35:26;;;;;;;21.40;9.07;;;;;;;13.05;100.00;96950.78;5037322;28;20071;-63
2021/08/18 01:37:52;;;;;;;22.75;8.80;;;;;;;13.10;100.00;96955.16;5039788;28;20049;-67
2021/08/18 01:40:19;;;;;;;21.20;9.38;;;;;;;12.96;100.00;96956.59;5033011;28;20498;-64
2021/08/18 01:42:45;;;;;;;26.77;9.93;;;;;;;12.93;100.00;96951.84;5038089;28;20079;-65
2021/08/18 01:45:21;;;;;;;24.80;8.98;;;;;;;12.91;100.00;96951.44;5026314;28;20041;-64
2021/08/18 01:47:47;;;;;;;25.35;9.35;;;;;;;12.93;100.00;96960.09;5031636;28;20080;-65
2021/08/18 01:50:12;;;;;;;16.52;7.47;;;;;;;12.95;100.00;96951.47;5034866;28;20072;-65
2021/08/18 01:52:37;;;;;;;24.20;9.48;;;;;;;12.91;100.00;96959.69;5040260;28;20037;-63
2021/08/18 01:55:04;;;;;;;23.15;8.95;;;;;;;12.97;100.00;96958.16;5020203;28;20048;-71
2021/08/18 01:57:30;;;;;;;22.92;9.07;;;;;;;13.03;100.00;96950.38;5040931;28;20119;-65
2021/08/18 01:59:55;;;;;;;25.17;9.43;;;;;;;13.16;100.00;96946.19;5042220;28;20136;-67
2021/08/18 02:02:20;;;;;;;20.58;8.98;;;;;;;13.27;100.00;96946.31;5037187;28;20041;-64
2021/08/18 02:04:46;;;;;;;20.65;8.95;;;;;;;13.24;100.00;96949.81;5035975;28;20041;-62
2021/08/18 02:07:11;;;;;;;17.17;7.82;;;;;;;13.20;100.00;96944.28;5034227;28;20103;-63
2021/08/18 02:09:36;;;;;;;21.25;8.15;;;;;;;13.21;100.00;96939.56;5041913;28;20052;-63
2021/08/18 02:12:02;;;;;;;20.38;7.88;;;;;;;13.36;100.00;96940.50;5030255;28;20052;-70
2021/08/18 02:14:27;;;;;;;20.33;8.30;;;;;;;13.39;100.00;96940.53;5032955;28;20040;-66
2021/08/18 02:16:53;;;;;;;20.55;8.27;;;;;;;13.33;100.00;96941.28;5032739;28;20476;-64
2021/08/18 02:19:18;;;;;;;21.98;9.13;;;;;;;13.31;100.00;96949.13;5028349;28;20451;-63
2021/08/18 02:21:44;;;;;;;24.15;9.02;;;;;;;13.32;100.00;96936.94;5042572;28;20041;-66
2021/08/18 02:24:09;;;;;;;23.17;10.18;;;;;;;13.25;100.00;96940.38;5035890;28;20055;-63
2021/08/18 02:26:35;;;;;;;21.92;9.57;;;;;;;13.19;100.00;96937.19;5042821;28;20107;-63
2021/08/18 02:29:00;;;;;;;21.77;8.75;;;;;;;13.23;100.00;96936.44;5039571;28;20596;-65
2021/08/18 02:31:27;;;;;;;24.20;9.80;;;;;;;13.28;100.00;96936.88;5033404;28;20109;-68
2021/08/18 02:33:53;;;;;;;23.10;8.40;;;;;;;13.41;100.00;96929.16;5042081;28;20033;-64
2021/08/18 02:36:19;;;;;;;21.88;8.30;;;;;;;13.60;100.00;96924.63;5015900;28;20047;-63
2021/08/18 02:38:44;;;;;;;25.48;8.90;;;;;;;13.75;100.00;96935.31;5026926;28;20033;-66
2021/08/18 02:41:10;;;;;;;21.73;8.88;;;;;;;13.84;100.00;96936.97;5038144;28;20041;-64
2021/08/18 02:43:35;;;;;;;27.02;10.23;;;;;;;13.99;100.00;96935.09;5040906;28;20041;-64
2021/08/18 02:46:00;;;;;;;24.20;10.82;;;;;;;14.02;100.00;96939.84;5039924;28;20103;-65
2021/08/18 02:48:26;;;;;;;23.98;10.43;;;;;;;13.96;99.48;96948.47;5037367;28;20041;-63
2021/08/18 02:50:53;;;;;;;21.65;9.18;;;;;;;14.03;99.83;96944.19;5048291;28;20425;-63
2021/08/18 02:53:19;;;;;;;19.17;8.43;;;;;;;14.19;100.00;96941.13;5040524;28;20051;-64
2021/08/18 02:55:44;;;;;;;22.20;9.45;;;;;;;14.22;100.00;96943.91;5039737;28;20037;-61
2021/08/18 02:58:10;;;;;;;23.05;9.10;;;;;;;14.07;100.00;96945.00;5034870;28;20037;-67
2021/08/18 03:00:35;;;;;;;23.40;9.63;;;;;;;14.24;100.00;96946.28;5042243;28;20067;-63
2021/08/18 03:03:00;;;;;;;24.38;10.18;;;;;;;14.34;98.95;96937.28;5033242;28;20495;-68
2021/08/18 03:05:26;;;;;;;27.52;10.57;;;;;;;14.45;96.26;96940.09;5034092;28;20480;-64
2021/08/18 03:07:52;;;;;;;25.92;11.02;;;;;;;14.41;97.74;96936.53;5038893;28;20033;-63
2021/08/18 03:10:17;;;;;;;24.73;10.85;;;;;;;14.36;98.35;96940.44;5032872;28;20406;-65
2021/08/18 03:12:43;;;;;;;26.38;11.65;;;;;;;14.43;97.06;96940.47;5040089;28;20037;-66
2021/08/18 03:15:09;;;;;;;28.63;12.75;;;;;;;14.46;97.78;96938.94;5034742;28;20051;-65
2021/08/18 03:17:34;;;;;;;29.85;12.43;;;;;;;14.49;95.82;96938.94;5041117;28;20056;-65
2021/08/18 03:20:00;;;;;;;26.90;11.43;;;;;;;14.54;95.68;96935.81;5039296;28;20413;-64
2021/08/18 03:22:25;;;;;;;28.55;13.27;;;;;;;14.58;94.75;96932.31;5033631;28;20033;-64
2021/08/18 03:24:51;;;;;;;30.50;12.60;;;;;;;14.57;94.41;96941.72;5040838;28;20616;-64
2021/08/18 03:27:16;;;;;;;25.95;11.40;;;;;;;14.52;94.15;96937.38;5034147;28;20045;-64
2021/08/18 03:29:42;;;;;;;34.08;13.35;;;;;;;14.46;94.16;96944.44;5038515;28;20041;-66
2021/08/18 03:32:08;;;;;;;30.30;13.15;;;;;;;14.44;93.81;96938.50;5027173;28;20584;-64
2021/08/18 03:34:33;;;;;;;31.48;13.68;;;;;;;14.43;93.85;96934.19;5038041;28;20429;-64
2021/08/18 03:36:59;;;;;;;33.05;12.95;;;;;;;14.26;98.17;96935.66;5031634;28;20049;-64
2021/08/18 03:39:25;;;;;;;28.27;12.00;;;;;;;14.20;99.20;96924.22;5035287;28;20041;-64
2021/08/18 03:41:50;;;;;;;35.42;12.95;;;;;;;14.22;98.88;96930.13;5022127;28;20048;-65
2021/08/18 03:44:16;;;;;;;29.35;13.00;;;;;;;14.23;98.00;96928.19;5031747;28;20122;-64
2021/08/18 03:46:41;;;;;;;27.73;12.13;;;;;;;14.18;98.83;96932.09;5036768;28;20084;-64
2021/08/18 03:49:06;;;;;;;32.65;13.05;;;;;;;14.10;99.85;96933.22;5030174;28;20136;-67
2021/08/18 03:51:32;;;;;;;33.20;12.80;;;;;;;14.10;100.00;96935.97;5032936;28;20041;-65
2021/08/18 03:53:57;;;;;;;37.22;15.45;;;;;;;14.24;100.00;96932.50;5040647;28;20041;-65
2021/08/18 03:56:22;;;;;;;36.83;13.38;;;;;;;14.18;99.49;96934.84;5031298;28;20533;-65
2021/08/18 03:58:48;;;;;;;34.70;14.95;;;;;;;14.12;99.12;96944.66;5032850;28;20132;-65
2021/08/18 04:01:13;;;;;;;33.45;13.77;;;;;;;14.07;98.52;96936.75;5032074;28;20040;-63
2021/08/18 04:03:39;;;;;;;30.50;13.85;;;;;;;14.18;96.45;96940.34;5028372;28;20044;-64
2021/08/18 04:06:04;;;;;;;31.65;13.57;;;;;;;14.14;97.29;96940.31;5022359;28;20075;-71
2021/08/18 04:08:30;;;;;;;38.85;13.07;;;;;;;14.20;96.37;96948.22;5031766;28;20059;-64
2021/08/18 04:10:55;;;;;;;30.27;12.15;;;;;;;14.20;96.27;96946.25;5040624;28;20123;-64
2021/08/18 04:13:21;;;;;;;32.70;13.95;;;;;;;14.04;97.34;96945.75;5027294;28;20045;-66
2021/08/18 04:15:46;;;;;;;28.33;13.55;;;;;;;14.10;97.84;96953.28;5040096;28;20094;-64
2021/08/18 04:18:12;;;;;;;29.40;12.70;;;;;;;14.13;95.49;96955.28;5031192;28;20051;-65
2021/08/18 04:20:37;;;;;;;30.83;12.80;;;;;;;14.23;95.96;96961.25;5026326;28;20037;-64
2021/08/18 04:23:04;;;;;;;31.42;13.18;;;;;;;14.18;94.81;96967.09;5037594;28;20041;-70
2021/08/18 04:25:30;;;;;;;33.13;12.82;;;;;;;14.09;95.25;96953.66;5020598;28;20072;-65
2021/08/18 04:27:56;;;;;;;25.73;13.23;;;;;;;14.17;95.98;96960.81;5036843;28;20047;-66
2021/08/18 04:30:22;;;;;;;31.08;12.80;;;;;;;14.09;97.10;96965.47;5033853;28;20638;-64
2021/08/18 04:32:48;;;;;;;31.60;14.20;;;;;;;14.21;94.96;96969.88;5033863;28;20040;-66
2021/08/18 04:35:15;;;;;;;32.50;13.63;;;;;;;14.11;95.14;96956.81;5034391;28;20046;-62
2021/08/18 04:37:40;;;;;;;29.83;12.75;;;;;;;14.22;95.05;96957.69;5033830;28;20069;-64
2021/08/18 04:40:09;;;;;;;28.92;12.25;;;;;;;14.18;95.58;96956.09;5028899;28;20135;-66
2021/08/18 04:42:39;;;;;;;31.15;14.13;;;;;;;14.25;95.23;96954.16;5036399;28;20494;-64
2021/08/18 04:45:06;;;;;;;34.17;13.48;;;;;;;14.34;92.92;96956.56;5032251;28;20137;-67
2021/08/18 04:47:32;;;;;;;30.95;13.05;;;;;;;14.37;93.46;96953.06;5031277;28;20049;-62
2021/08/18 04:49:58;;;;;;;25.83;12.43;;;;;;;14.45;92.01;96951.91;5027214;28;20055;-63
2021/08/18 04:52:24;;;;;;;29.10;12.27;;;;;;;14.39;92.63;96958.97;5034486;28;20395;-67
2021/08/18 04:54:49;;;;;;;30.20;12.85;;;;;;;14.42;92.48;96962.91;5039819;28;20490;-64
2021/08/18 04:57:14;;;;;;;31.90;12.98;;;;;;;14.39;91.51;96966.47;5025309;28;20041;-65
2021/08/18 04:59:40;;;;;;;32.45;13.80;;;;;;;14.27;94.79;96957.31;5038668;28;20060;-63
2021/08/18 05:02:05;;;;;;;34.20;13.95;;;;;;;14.25;95.90;96965.19;5028342;28;20048;-65
2021/08/18 05:04:31;;;;;;;30.25;13.23;;;;;;;14.23;95.35;96973.03;5038611;28;20136;-65
2021/08/18 05:06:56;;;;;;;30.35;13.43;;;;;;;14.30;94.29;96967.56;5038023;28;20049;-63
2021/08/18 05:09:21;;;;;;;29.05;13.95;;;;;;;14.36;91.87;96968.00;5031782;28;20683;-64
2021/08/18 05:11:47;;;;;;;27.88;12.18;;;;;;;14.46;92.10;96969.25;5039300;28;20037;-67
2021/08/18 05:14:12;;;;;;;28.90;13.40;;;;;;;14.64;90.60;96970.16;5027134;28;20052;-64
2021/08/18 05:16:38;;;;;;;30.67;12.90;;;;;;;14.71;89.07;96967.44;5035699;28;20494;-64
2021/08/18 05:19:03;;;;;;;30.75;12.57;;;;;;;14.56;90.38;96974.00;5021775;28;20543;-69
2021/08/18 05:21:28;;;;;;;25.08;10.93;;;;;;;14.66;87.64;96980.78;5037094;28;20048;-63
2021/08/18 05:23:54;;;;;;;26.00;11.75;;;;;;;14.49;90.28;96976.72;5039188;28;20481;-64
2021/08/18 05:26:20;;;;;;;29.35;12.45;;;;;;;14.52;90.08;96978.72;5024254;28;20072;-64
2021/08/18 05:28:45;;;;;;;32.33;13.63;;;;;;;14.46;90.27;96974.75;5035687;28;20068;-66
2021/08/18 05:31:11;;;;;;;28.23;12.18;;;;;;;14.44;89.95;96975.16;5047891;28;20036;-64
2021/08/18 05:33:36;;;;;;;28.90;12.43;;;;;;;14.55;89.07;96977.97;5037796;28;20493;-63
2021/08/18 05:36:03;;;;;;;26.98;11.45;;;;;;;14.62;89.32;96969.75;5043261;28;20108;-68
2021/08/18 05:38:29;;;;;;;29.23;12.50;;;;;;;14.72;87.55;96976.47;5042470;28;20041;-63
2021/08/18 05:40:54;;;;;;;27.35;11.85;;;;;;;14.63;88.60;96984.31;5037925;28;20044;-64
2021/08/18 05:43:20;;;;;;;29.77;12.60;;;;;;;14.53;88.64;96981.09;5029665;28;20048;-64
2021/08/18 05:45:45;;;;;;;26.17;12.38;;;;;;;14.53;89.34;96977.53;5037858;28;20049;-63
2021/08/18 05:48:11;;;;;;;28.10;12.13;;;;;;;14.78;86.56;96976.91;5022409;28;20406;-65
2021/08/18 05:50:36;;;;;;;28.90;12.25;;;;;;;14.84;86.95;96976.16;5038803;28;20044;-65
2021/08/18 05:53:01;;;;;;;27.40;12.25;;;;;;;14.93;85.36;96977.72;5038570;28;20049;-65
2021/08/18 05:55:27;;;;;;;25.73;11.10;;;;;;;14.92;85.63;96985.22;5016945;28;20398;-65
2021/08/18 05:57:52;;;;;;;25.98;11.75;;;;;;;14.99;85.43;96985.25;5036638;28;20402;-64
2021/08/18 06:00:18;;;;;;;26.77;11.55;;;;;;;15.09;84.78;96980.97;5032734;28;20516;-63
2021/08/18 06:02:43;;;;;;;22.70;11.00;;;;;;;15.12;83.91;96999.47;5032718;28;20508;-64
2021/08/18 06:05:10;;;;;;;22.70;10.82;;;;;;;15.01;86.30;96990.38;5031221;28;20052;-66
2021/08/18 06:07:35;;;;;;;22.70;10.80;;;;;;;14.93;87.50;97002.56;5032951;28;20047;-64
2021/08/18 06:10:01;;;;;;;25.95;12.20;;;;;;;15.03;87.31;96994.31;5039238;28;20394;-64
2021/08/18 06:12:26;;;;;;;28.67;12.32;;;;;;;15.09;86.56;96994.75;5034806;28;20041;-65
2021/08/18 06:14:51;;;;;;;24.77;11.35;;;;;;;15.20;85.46;96987.28;5030394;28;20072;-64
2021/08/18 06:17:17;;;;;;;22.83;11.05;;;;;;;15.31;83.63;96997.59;5033033;28;20152;-65
2021/08/18 06:19:42;;;;;;;20.58;10.93;;;;;;;15.46;84.07;96993.66;5040654;28;20045;-65
2021/08/18 06:22:07;;;;;;;22.65;11.43;;;;;;;15.46;84.24;96988.13;5036521;28;20055;-66
2021/08/18 06:27:05;;;;;;;22.08;10.77;;;;;;;15.62;83.71;96990.53;5030887;28;20040;-68
2021/08/18 06:29:32;;;;;;;24.00;11.75;;;;;;;15.65;83.81;96990.53;5041545;28;20436;-66
2021/08/18 06:31:58;;;;;;;29.20;12.52;;;;;;;15.46;84.15;96999.19;5034855;28;20052;-64
2021/08/18 06:34:24;;;;;;;22.83;10.90;;;;;;;15.42;82.67;96993.66;5033646;28;20045;-67
2021/08/18 06:36:50;;;;;;;21.23;10.90;;;;;;;15.57;82.54;96993.66;5041406;28;20045;-65
2021/08/18 06:39:15;;;;;;;24.90;10.98;;;;;;;15.74;82.12;96995.69;5035196;28;20051;-64
2021/08/18 06:41:41;;;;;;;19.08;9.40;;;;;;;15.61;81.22;96989.75;5040400;28;20422;-64
2021/08/18 06:44:06;;;;;;;29.10;10.45;;;;;;;15.64;81.03;96999.97;5034782;28;20110;-63
2021/08/18 06:46:31;;;;;;;22.65;9.30;;;;;;;15.66;78.95;96996.84;5025745;28;20079;-65
2021/08/18 06:48:57;;;;;;;23.52;9.82;;;;;;;15.58;79.64;96998.81;5040916;28;20098;-64
2021/08/18 06:51:22;;;;;;;20.83;10.10;;;;;;;15.49;80.24;96996.41;5033901;28;20524;-64
2021/08/18 06:53:48;;;;;;;19.48;8.88;;;;;;;15.39;79.50;96988.91;5034579;28;20053;-64
2021/08/18 06:56:13;;;;;;;19.08;8.15;;;;;;;15.54;77.79;97000.78;5027161;28;20375;-64
2021/08/18 06:58:39;;;;;;;22.38;9.45;;;;;;;15.63;77.98;96995.66;5035867;28;20132;-65
2021/08/18 07:01:05;;;;;;;21.67;8.82;;;;;;;15.55;77.75;96996.03;5034410;28;20059;-71
2021/08/18 07:03:30;;;;;;;20.65;8.23;;;;;;;15.66;78.54;96989.34;5039948;28;20136;-66
2021/08/18 07:05:56;;;;;;;20.08;9.40;;;;;;;15.82;76.18;96990.97;5041933;28;20537;-67
2021/08/18 07:08:21;;;;;;;21.75;10.20;;;;;;;15.94;76.51;96998.84;5033533;28;21067;-69
2021/08/18 07:10:47;;;;;;;19.63;8.98;;;;;;;16.28;74.46;96984.63;5032236;28;20036;-63
2021/08/18 07:13:12;;;;;;;21.17;8.95;;;;;;;15.97;74.90;96988.97;5034196;28;20072;-64
2021/08/18 07:15:38;;;;;;;17.08;8.20;;;;;;;16.14;74.93;96990.16;5039739;28;20045;-63
2021/08/18 07:18:04;;;;;;;18.45;8.45;;;;;;;16.13;74.50;96986.59;5033219;28;20068;-69
2021/08/18 07:20:29;;;;;;;20.35;9.43;;;;;;;16.24;73.68;96987.41;5037954;28;20041;-62
2021/08/18 07:22:55;;;;;;;22.25;8.05;;;;;;;16.19;75.43;96987.00;5032218;28;20041;-65
2021/08/18 07:25:21;;;;;;;19.10;7.97;;;;;;;16.23;75.14;96991.34;5033059;28;20055;-64
2021/08/18 07:27:46;;;;;;;20.58;8.00;;;;;;;16.03;74.55;96993.72;5032990;28;20432;-63
2021/08/18 07:30:12;;;;;;;19.10;8.52;;;;;;;16.08;76.25;96991.75;5033880;28;20125;-61
2021/08/18 07:32:38;;;;;;;16.45;7.72;;;;;;;16.18;74.47;96991.72;5038713;28;20489;-68
2021/08/18 07:35:04;;;;;;;21.38;8.48;;;;;;;16.40;74.07;96995.28;5035508;28;20045;-70
2021/08/18 07:37:30;;;;;;;18.23;7.30;;;;;;;16.75;70.33;96993.59;5011520;28;20040;-64
2021/08/18 07:39:57;;;;;;;18.17;9.23;;;;;;;16.86;73.25;96990.03;5033111;28;20037;-63
2021/08/18 07:42:23;;;;;;;15.80;7.28;;;;;;;17.00;71.65;96995.50;5031422;28;20057;-63
2021/08/18 07:44:48;;;;;;;20.58;8.07;;;;;;;17.42;69.25;96996.47;5039800;28;20041;-65
2021/08/18 07:47:14;;;;;;;16.65;7.30;;;;;;;17.89;67.17;96987.88;5024191;28;20065;-63
2021/08/18 07:49:39;;;;;;;14.88;7.20;;;;;;;18.07;66.96;96994.03;5036767;28;20115;-65
2021/08/18 07:52:05;;;;;;;19.10;8.10;;;;;;;18.48;64.08;96998.03;5033089;28;20136;-70
2021/08/18 07:54:31;;;;;;;18.45;7.85;;;;;;;18.15;64.67;96994.78;5031810;28;20514;-63
2021/08/18 07:56:57;;;;;;;15.98;8.05;;;;;;;17.65;66.90;96982.09;5036686;28;20401;-65
2021/08/18 07:59:22;;;;;;;17.52;7.97;;;;;;;17.67;67.73;96984.44;5025180;28;20055;-67
2021/08/18 08:01:47;;;;;;;14.85;6.65;;;;;;;18.18;64.42;96982.09;5039184;28;20045;-67
2021/08/18 08:04:13;;;;;;;13.40;6.38;;;;;;;18.09;65.22;96982.56;5035421;28;20037;-67
2021/08/18 08:06:38;;;;;;;15.95;7.65;;;;;;;18.44;64.08;96994.50;5040207;28;20041;-67
2021/08/18 08:09:04;;;;;;;14.07;7.28;;;;;;;18.63;63.54;96987.56;5036036;28;20048;-68
2021/08/18 08:11:30;;;;;;;15.82;6.85;;;;;;;17.95;65.27;96992.56;5038670;28;20075;-67
2021/08/18 08:13:55;;;;;;;17.42;6.80;;;;;;;17.84;66.39;96993.81;5037966;28;20060;-68
2021/08/18 08:16:20;;;;;;;15.75;7.55;;;;;;;17.62;67.35;96990.41;5033695;28;20037;-67
2021/08/18 08:18:46;;;;;;;15.52;8.02;;;;;;;17.87;67.15;97001.34;5038633;28;20136;-67
2021/08/18 08:21:11;;;;;;;14.70;6.72;;;;;;;18.12;64.56;97003.91;5032280;28;20048;-67
2021/08/18 08:23:37;;;;;;;16.67;7.20;;;;;;;17.92;66.56;96998.94;5038976;28;20131;-68
2021/08/18 08:26:02;;;;;;;15.52;7.30;;;;;;;17.59;67.56;96989.22;5039416;28;20498;-69
2021/08/18 08:28:28;;;;;;;18.23;7.90;;;;;;;17.89;67.04;96996.19;5034488;28;20202;-67
2021/08/18 08:30:53;;;;;;;16.17;7.55;;;;;;;18.10;65.86;96998.00;5033162;28;20072;-67
2021/08/18 08:33:18;;;;;;;17.75;7.45;;;;;;;18.01;65.96;97001.25;5032619;28;20394;-67
2021/08/18 08:35:44;;;;;;;18.17;6.65;;;;;;;18.31;64.32;96999.78;5035477;28;20048;-66
2021/08/18 08:38:10;;;;;;;16.38;6.25;;;;;;;17.66;67.21;96996.72;5023762;28;20429;-67
2021/08/18 08:40:37;;;;;;;16.40;6.18;;;;;;;17.41;66.87;96999.63;5036998;28;20045;-67
2021/08/18 08:43:05;;;;;;;13.93;6.65;;;;;;;17.64;67.30;96996.34;5035163;28;20099;-69
2021/08/18 08:45:31;;;;;;;13.02;6.00;;;;;;;17.86;67.24;97000.56;5035316;28;20049;-66
2021/08/18 08:47:56;;;;;;;14.68;5.97;;;;;;;18.11;65.77;97000.38;5012838;28;20122;-67
2021/08/18 08:50:23;;;;;;;15.27;6.10;;;;;;;18.17;65.91;96999.91;5013154;28;20056;-67
2021/08/18 08:52:49;;;;;;;13.15;6.25;;;;;;;18.12;65.29;96998.38;5036796;28;20057;-67
2021/08/18 08:55:15;;;;;;;13.48;5.90;;;;;;;18.33;64.70;96997.41;5031873;28;20383;-67
2021/08/18 08:57:51;;;;;;;14.73;6.28;;;;;;;18.15;65.41;97001.13;5036561;28;20041;-67
2021/08/18 09:00:18;;;;;;;12.95;6.15;;;;;;;18.04;65.34;96989.34;5030991;28;20053;-66
2021/08/18 09:02:43;;;;;;;10.93;5.97;;;;;;;18.52;63.84;96990.47;5036756;28;20055;-67
2021/08/18 09:05:09;;;;;;;12.95;5.85;;;;;;;18.93;62.60;96995.19;5031281;28;20460;-68
2021/08/18 09:07:35;;;;;;;13.25;6.35;;;;;;;18.37;65.13;96995.38;5035961;28;20572;-67
2021/08/18 09:10:03;;;;;;;16.15;5.63;;;;;;;18.52;64.86;96999.56;5034742;28;20068;-70
2021/08/18 09:12:29;;;;;;;11.02;5.53;;;;;;;18.71;63.35;96995.41;5033960;28;20052;-68
2021/08/18 09:14:55;;;;;;;12.68;5.25;;;;;;;19.49;59.98;96989.31;5018218;28;20132;-68
2021/08/18 09:17:29;;;;;;;11.98;6.10;;;;;;;19.37;61.39;96989.88;5014430;28;20140;-68
2021/08/18 09:20:07;;;;;;;17.95;8.18;;;;;;;19.66;59.75;96984.69;5031536;28;20047;-67
2021/08/18 09:22:36;;;;;;;12.70;5.10;;;;;;;19.54;59.40;96980.50;5034950;28;20402;-67
2021/08/18 09:25:12;;;;;;;11.57;5.57;;;;;;;20.08;59.00;96984.44;5033292;28;20052;-68
2021/08/18 09:27:39;;;;;;;17.33;4.93;;;;;;;20.21;58.58;96985.44;5032888;28;20044;-65
2021/08/18 09:30:15;;;;;;;14.02;5.10;;;;;;;19.52;59.37;96987.66;5031931;28;20059;-68
2021/08/18 09:32:41;;;;;;;10.10;4.65;;;;;;;19.52;59.42;96985.69;5037053;28;20472;-67
2021/08/18 09:35:15;;;;;;;9.38;4.50;;;;;;;19.88;58.13;96984.38;5031695;28;20055;-68
2021/08/18 09:37:43;;;;;;;10.48;4.55;;;;;;;19.71;58.39;96980.66;5037112;28;20674;-66
2021/08/18 09:40:21;;;;;;;8.63;4.07;;;;;;;20.51;57.31;96992.84;5032550;28;20667;-67
2021/08/18 09:42:47;;;;;;;8.75;3.92;;;;;;;21.00;55.99;96984.75;5038087;28;20037;-66
2021/08/18 09:45:22;;;;;;;9.82;4.40;;;;;;;21.56;53.90;96981.19;5031971;28;20106;-67
2021/08/18 09:48:08;;;;;;;10.80;4.43;;;;;;;21.48;53.78;96984.56;5036092;28;20449;-68
2021/08/18 09:50:50;;;;;;;12.23;5.55;;;;;;;22.16;52.25;96980.16;5035476;28;20052;-68
2021/08/18 09:53:27;;;;;;;8.55;4.47;;;;;;;22.40;51.10;96978.00;5028777;28;20048;-67
2021/08/18 09:56:06;;;;;;;10.07;4.95;;;;;;;21.54;52.30;96980.06;5041230;28;20398;-67
2021/08/18 09:58:32;;;;;;;;;;;;;;;20.90;54.29;96980.19;5036773;28;20441;-66
2021/08/18 10:01:00;;;;;;;10.93;4.65;;;;;;;20.75;55.13;96976.13;5040523;28;19921;-67
2021/08/18 10:03:26;;;;;;;9.88;5.10;;;;;;;20.46;55.34;96973.84;5033619;28;20081;-67
2021/08/18 10:05:55;;;;;;;9.07;4.63;;;;;;;20.19;56.29;96968.38;5041016;28;20071;-66
2021/08/18 10:08:22;;;;;;;9.35;5.30;;;;;;;20.59;55.68;96968.44;5035645;28;20128;-66
2021/08/18 10:10:49;;;;;;;8.88;4.80;;;;;;;20.58;55.73;96970.44;5039604;28;20113;-67
2021/08/18 10:13:15;;;;;;;9.02;4.47;;;;;;;21.08;54.72;96968.69;5035595;28;20080;-67
2021/08/18 10:15:41;;;;;;;10.77;5.35;;;;;;;21.45;52.91;96960.34;5039435;28;20037;-68
2021/08/18 10:18:08;;;;;;;9.93;5.20;;;;;;;21.79;51.88;96959.16;5031260;28;20065;-68
2021/08/18 10:20:35;;;;;;;11.75;4.65;;;;;;;22.42;51.11;96953.22;5040698;28;20045;-68
2021/08/18 10:23:12;;;;;;;8.38;4.40;;;;;;;23.38;47.17;96954.50;5039433;28;20106;-68
2021/08/18 10:25:47;;;;;;;10.55;5.43;;;;;;;24.18;46.12;96948.00;5038180;28;20516;-68
2021/08/18 10:28:15;;;;;;;9.65;4.95;;;;;;;23.68;46.32;96949.59;5033254;28;20102;-68
2021/08/18 10:30:49;;;;;;;9.38;4.65;;;;;;;22.99;47.82;96956.41;5036939;28;20049;-66
2021/08/18 10:33:54;;;;;;;13.10;6.25;;;;;;;21.76;50.67;96946.91;5031917;28;20206;-67
2021/08/18 10:36:42;;;;;;;11.80;5.20;;;;;;;22.11;50.47;96941.63;5034205;28;20037;-66
2021/08/18 10:39:23;;;;;;;11.38;4.75;;;;;;;22.36;50.00;96943.03;5029746;28;20047;-67
2021/08/18 10:42:02;;;;;;;14.23;5.38;;;;;;;21.82;51.07;96941.56;5037273;28;20566;-67
2021/08/18 10:44:43;;;;;;;13.23;6.33;;;;;;;22.20;50.42;96943.81;5034905;28;20929;-66
2021/08/18 10:47:16;;;;;;;9.95;5.47;;;;;;;21.56;51.58;96942.19;5031889;28;20045;-67
2021/08/18 10:49:51;;;;;;;8.55;4.38;;;;;;;22.14;50.59;96929.63;5034453;28;20041;-67
2021/08/18 10:52:47;;;;;;;14.55;6.10;;;;;;;23.25;47.99;96934.16;5033017;28;20748;-67
2021/08/18 10:55:26;;;;;;;10.35;4.82;;;;;;;24.08;46.45;96935.13;5019152;28;20628;-66
2021/08/18 10:57:56;;;;;;;8.77;4.35;;;;;;;23.89;45.61;96928.56;5040447;28;20064;-67
2021/08/18 11:00:42;;;;;;;9.95;4.40;;;;;;;22.66;48.45;96930.66;5034971;28;20751;-67
2021/08/18 11:03:11;;;;;;;10.52;5.57;;;;;;;22.54;48.81;96921.00;5034836;28;20462;-68
2021/08/18 11:05:36;;;;;;;8.67;4.10;;;;;;;22.38;49.14;96915.47;5041491;28;20063;-68
2021/08/18 11:08:18;;;;;;;8.55;3.95;;;;;;;22.45;48.76;96918.84;5039476;28;20287;-69
2021/08/18 11:10:55;;;;;;;7.25;3.70;;;;;;;22.09;49.26;96924.56;5038994;28;20045;-68
2021/08/18 11:13:47;;;;;;;6.63;3.60;;;;;;;21.36;51.45;96919.91;5034285;28;20075;-66
2021/08/18 11:16:16;;;;;;;8.23;4.10;;;;;;;21.27;51.26;96924.53;5038718;28;20120;-68
2021/08/18 11:18:55;;;;;;;9.60;4.28;;;;;;;21.81;50.23;96918.50;5047084;28;20040;-66
2021/08/18 11:21:28;;;;;;;9.20;4.10;;;;;;;21.63;50.21;96916.16;5035894;28;20040;-67
2021/08/18 11:24:06;;;;;;;8.95;4.13;;;;;;;21.42;52.71;96914.59;5040079;28;20049;-68